Rogers, AR

12:58 AM CDT on August 21, 2014 (GMT -0500)
Rogers Municipal-Carter | Change Station
CLOSE
Current Station
Airport
Location: Rogers,
Elevation: 1358 ft
Nearby Weather Stations

Elev 1358 ft 36.37 °N, 94.11 °W | Updated 1 hour ago

Clear
Clear
77 °F
Feels Like 77 °F
N
9
Wind Variable Wind from SSE

Today
High -- | Low -- °F
--% Chance of Precip.
Yesterday
High -- | Low -- °F
Precip. -- in
6:38 AM 7:58 PM
Waning Crescent, 16% visible
Pressure 29.98 in
Visibility 10.0 miles
Clouds Clear
Dew Point 67 °F
Humidity 71%
Rainfall 0.00 in
Snow Depth Not available.
UV 0 out of 12
Pollen 9.20 out of 12
Air Quality Not available.
Flu Activity Not available.
METAR KROG 210457Z AUTO 16008KT 10SM CLR 25/19 A3003 RMK AO2 SLP151 T02500194 403330233

More Conditions Fewer Conditions

Pressure 29.98 in
Visibility 10.0 miles
Clouds Clear
Dew Point 67 °F
Humidity 71%
Rainfall 0.00 in
Snow Depth Not available.
UV 0 out of 12
Pollen 9.20 out of 12
Air Quality Not available.
Flu Activity Not available.
METAR KROG 210457Z AUTO 16008KT 10SM CLR 25/19 A3003 RMK AO2 SLP151 T02500194 403330233

More Conditions Fewer Conditions

10-Day Weather Forecast

Almanac

Astronomy

Aug. 21, 2014 Rise Set
Actual Time 6:38 AM CDT 7:58 PM CDT
Civil Twilight 6:11 AM CDT 8:25 PM CDT
Nautical Twilight 5:39 AM CDT 8:57 PM CDT
Astronomical Twilight 5:05 AM CDT 9:31 PM CDT
Moon 3:12 AM CDT 5:25 PM CDT
Length of Visible Light 14h 13m
Length of Day
13h 20m
Tomorrow will be 2m 7s shorter.
Waning Crescent, 16% of the Moon is Illuminated
Today
Waning Crescent
Aug 25
New
Sep 2
First Quarter
Sep 8
Full
Sep 15
Last Quarter

Today's Extremes

State Highs State Lows

Community

WunderPhotos

Upload Photos

1,745,858 photos uploaded!

Nearby

Snow Depth

Station Depth Elevation
No new snow has been reported.

Earthquake Activity

City Distance Mag. Time & Date
No recent earthquake activity has been reported nearby.
Minimum magnitude displayed is 2.5.

Coastal Water Temperatures

Place Temperature
No Stations Reporting

Nearby Weather Stations